Brightwaters, New York
Current Conditions -  °F | °C
As of 8:53 AM on Monday 20 Oct 2014 (Local Time) from KFRG Reporting Station
Clear Clear  
Wind Chill: 42°   Ceiling: Unl
Heat Index: 46°   Visibility: 10mi
Dew Point: 33°   Wind: 7mph
Humidity: 61%   Direction: 250°WSW
Pressure: 30.13"   Gusts: NA
Location:  40.72°N, 73.27°W
Report Text: KFRG 201253Z 25006KT 10SM CLR 08/01 A3013 RMK AO2 SLP203 T00780006
Loading
Personal Weather Stations






























Interactive Weather Map New forecast layout! Learn more

10-Day Weather Forecast

Advertisements
Track Severe Weather on mobile